sensor_id;sensor_type;location;lat;lon;timestamp;pressure;altitude;pressure_sealevel;temperature;humidity
6144;BME280;3103;49.492;8.474;2024-03-17T00:00:25;101322.50;;;10.98;73.55
6144;BME280;3103;49.492;8.474;2024-03-17T00:02:51;101325.59;;;10.95;73.59
6144;BME280;3103;49.492;8.474;2024-03-17T00:05:17;101329.94;;;10.96;73.06
6144;BME280;3103;49.492;8.474;2024-03-17T00:07:44;101334.34;;;10.90;73.78
6144;BME280;3103;49.492;8.474;2024-03-17T00:10:11;101321.28;;;10.94;73.79
6144;BME280;3103;49.492;8.474;2024-03-17T00:12:38;101321.81;;;11.03;73.33
6144;BME280;3103;49.492;8.474;2024-03-17T00:15:08;101318.59;;;10.94;73.68
6144;BME280;3103;49.492;8.474;2024-03-17T00:17:34;101310.81;;;10.86;74.29
6144;BME280;3103;49.492;8.474;2024-03-17T00:20:01;101315.03;;;10.75;74.05
6144;BME280;3103;49.492;8.474;2024-03-17T00:22:35;101316.41;;;10.59;75.36
6144;BME280;3103;49.492;8.474;2024-03-17T00:25:07;101312.38;;;10.68;75.22
6144;BME280;3103;49.492;8.474;2024-03-17T00:27:33;101306.09;;;10.56;76.41
6144;BME280;3103;49.492;8.474;2024-03-17T00:30:00;101304.88;;;10.77;75.56
6144;BME280;3103;49.492;8.474;2024-03-17T00:32:26;101307.56;;;10.77;74.91
6144;BME280;3103;49.492;8.474;2024-03-17T00:34:52;101303.84;;;10.78;74.47
6144;BME280;3103;49.492;8.474;2024-03-17T00:37:18;101301.97;;;10.79;74.66
6144;BME280;3103;49.492;8.474;2024-03-17T00:39:44;101295.63;;;10.73;75.67
6144;BME280;3103;49.492;8.474;2024-03-17T00:42:09;101298.56;;;10.65;75.84
6144;BME280;3103;49.492;8.474;2024-03-17T00:44:35;101302.44;;;10.44;77.50
6144;BME280;3103;49.492;8.474;2024-03-17T00:47:01;101295.94;;;10.27;78.68
6144;BME280;3103;49.492;8.474;2024-03-17T00:49:27;101291.41;;;10.21;78.31
6144;BME280;3103;49.492;8.474;2024-03-17T00:51:53;101286.59;;;10.36;78.11
6144;BME280;3103;49.492;8.474;2024-03-17T00:54:19;101282.09;;;10.55;77.66
6144;BME280;3103;49.492;8.474;2024-03-17T00:56:44;101290.13;;;10.61;77.33
6144;BME280;3103;49.492;8.474;2024-03-17T00:59:10;101284.16;;;10.59;77.72
6144;BME280;3103;49.492;8.474;2024-03-17T01:01:37;101281.94;;;10.50;78.42
6144;BME280;3103;49.492;8.474;2024-03-17T01:04:02;101270.69;;;10.34;78.82
6144;BME280;3103;49.492;8.474;2024-03-17T01:06:28;101277.31;;;10.32;78.55
6144;BME280;3103;49.492;8.474;2024-03-17T01:08:54;101273.22;;;10.29;78.71
6144;BME280;3103;49.492;8.474;2024-03-17T01:11:20;101268.69;;;10.23;78.57
6144;BME280;3103;49.492;8.474;2024-03-17T01:13:46;101272.38;;;10.29;78.14
6144;BME280;3103;49.492;8.474;2024-03-17T01:16:13;101277.22;;;10.14;79.84
6144;BME280;3103;49.492;8.474;2024-03-17T01:18:39;101279.78;;;9.95;82.86
6144;BME280;3103;49.492;8.474;2024-03-17T01:21:07;101277.47;;;9.99;82.08
6144;BME280;3103;49.492;8.474;2024-03-17T01:23:33;101270.03;;;9.56;83.37
6144;BME280;3103;49.492;8.474;2024-03-17T01:25:58;101262.34;;;9.73;83.97
6144;BME280;3103;49.492;8.474;2024-03-17T01:28:24;101265.91;;;9.98;83.24
6144;BME280;3103;49.492;8.474;2024-03-17T01:30:50;101264.84;;;9.68;83.25
6144;BME280;3103;49.492;8.474;2024-03-17T01:33:16;101272.09;;;9.61;83.97
6144;BME280;3103;49.492;8.474;2024-03-17T01:35:43;101264.06;;;9.61;84.51
6144;BME280;3103;49.492;8.474;2024-03-17T01:38:09;101263.38;;;9.72;85.26
6144;BME280;3103;49.492;8.474;2024-03-17T01:40:38;101250.28;;;9.44;86.16
6144;BME280;3103;49.492;8.474;2024-03-17T01:43:04;101248.56;;;9.56;85.96
6144;BME280;3103;49.492;8.474;2024-03-17T01:45:31;101246.97;;;9.48;86.39
6144;BME280;3103;49.492;8.474;2024-03-17T01:47:59;101244.59;;;9.72;85.74
6144;BME280;3103;49.492;8.474;2024-03-17T01:50:36;101236.66;;;9.90;85.32
6144;BME280;3103;49.492;8.474;2024-03-17T01:53:04;101233.44;;;10.06;84.44
6144;BME280;3103;49.492;8.474;2024-03-17T01:55:37;101232.06;;;9.97;84.05
6144;BME280;3103;49.492;8.474;2024-03-17T01:58:04;101223.06;;;10.17;83.36
6144;BME280;3103;49.492;8.474;2024-03-17T02:00:34;101222.28;;;9.78;84.48
6144;BME280;3103;49.492;8.474;2024-03-17T02:03:06;101227.19;;;9.88;84.14
6144;BME280;3103;49.492;8.474;2024-03-17T02:05:36;101217.34;;;10.06;83.52
6144;BME280;3103;49.492;8.474;2024-03-17T02:08:04;101216.75;;;10.04;83.06
6144;BME280;3103;49.492;8.474;2024-03-17T02:10:30;101217.00;;;9.96;83.65
6144;BME280;3103;49.492;8.474;2024-03-17T02:12:56;101227.56;;;9.91;84.39
6144;BME280;3103;49.492;8.474;2024-03-17T02:15:23;101217.88;;;9.83;84.81
6144;BME280;3103;49.492;8.474;2024-03-17T02:18:08;101217.03;;;9.90;84.76
6144;BME280;3103;49.492;8.474;2024-03-17T02:20:34;101201.31;;;9.93;84.38
6144;BME280;3103;49.492;8.474;2024-03-17T02:23:18;101207.28;;;9.95;83.80
6144;BME280;3103;49.492;8.474;2024-03-17T02:25:44;101205.47;;;9.89;84.07
6144;BME280;3103;49.492;8.474;2024-03-17T02:28:12;101203.19;;;9.93;83.55
6144;BME280;3103;49.492;8.474;2024-03-17T02:30:38;101205.66;;;9.94;83.48
6144;BME280;3103;49.492;8.474;2024-03-17T02:33:04;101199.91;;;9.91;83.51
6144;BME280;3103;49.492;8.474;2024-03-17T02:35:30;101192.88;;;9.90;83.58
6144;BME280;3103;49.492;8.474;2024-03-17T02:37:56;101197.22;;;9.91;83.01
6144;BME280;3103;49.492;8.474;2024-03-17T02:40:22;101193.09;;;9.88;82.94
6144;BME280;3103;49.492;8.474;2024-03-17T02:42:48;101191.69;;;9.79;82.82
6144;BME280;3103;49.492;8.474;2024-03-17T02:45:14;101180.53;;;9.82;83.35
6144;BME280;3103;49.492;8.474;2024-03-17T02:47:40;101187.53;;;9.90;82.43
6144;BME280;3103;49.492;8.474;2024-03-17T02:50:07;101190.44;;;9.81;82.74
6144;BME280;3103;49.492;8.474;2024-03-17T02:52:35;101187.38;;;9.78;83.47
6144;BME280;3103;49.492;8.474;2024-03-17T02:55:00;101187.81;;;9.75;83.49
6144;BME280;3103;49.492;8.474;2024-03-17T02:57:28;101180.81;;;9.74;84.04
6144;BME280;3103;49.492;8.474;2024-03-17T02:59:58;101191.53;;;9.74;84.21
6144;BME280;3103;49.492;8.474;2024-03-17T03:02:25;101194.84;;;9.69;83.82
6144;BME280;3103;49.492;8.474;2024-03-17T03:04:51;101195.72;;;9.63;83.98
6144;BME280;3103;49.492;8.474;2024-03-17T03:07:17;101200.59;;;9.35;85.43
6144;BME280;3103;49.492;8.474;2024-03-17T03:09:44;101200.56;;;9.41;86.13
6144;BME280;3103;49.492;8.474;2024-03-17T03:12:10;101198.41;;;9.63;85.22
6144;BME280;3103;49.492;8.474;2024-03-17T03:14:35;101198.03;;;9.60;84.52
6144;BME280;3103;49.492;8.474;2024-03-17T03:17:02;101202.78;;;9.51;85.15
6144;BME280;3103;49.492;8.474;2024-03-17T03:19:29;101197.44;;;9.51;85.15
6144;BME280;3103;49.492;8.474;2024-03-17T03:21:55;101204.06;;;9.48;85.66
6144;BME280;3103;49.492;8.474;2024-03-17T03:24:21;101212.41;;;9.20;87.06
6144;BME280;3103;49.492;8.474;2024-03-17T03:26:47;101217.47;;;9.48;86.50
6144;BME280;3103;49.492;8.474;2024-03-17T03:29:14;101214.56;;;9.50;86.08
6144;BME280;3103;49.492;8.474;2024-03-17T03:31:40;101215.81;;;9.47;86.34
6144;BME280;3103;49.492;8.474;2024-03-17T03:34:07;101217.47;;;9.48;86.49
6144;BME280;3103;49.492;8.474;2024-03-17T03:36:35;101210.66;;;9.46;86.57
6144;BME280;3103;49.492;8.474;2024-03-17T03:39:04;101219.53;;;9.46;86.40
6144;BME280;3103;49.492;8.474;2024-03-17T03:41:31;101205.75;;;9.36;86.63
6144;BME280;3103;49.492;8.474;2024-03-17T03:44:00;101200.38;;;9.36;86.82
6144;BME280;3103;49.492;8.474;2024-03-17T03:46:27;101204.53;;;9.32;87.42
6144;BME280;3103;49.492;8.474;2024-03-17T03:48:53;101204.75;;;9.31;87.81
6144;BME280;3103;49.492;8.474;2024-03-17T03:51:19;101205.13;;;9.34;87.83
6144;BME280;3103;49.492;8.474;2024-03-17T03:53:45;101201.41;;;9.35;87.43
6144;BME280;3103;49.492;8.474;2024-03-17T03:56:11;101201.81;;;9.45;87.01
6144;BME280;3103;49.492;8.474;2024-03-17T03:58:38;101195.63;;;9.45;86.46
6144;BME280;3103;49.492;8.474;2024-03-17T04:01:06;101192.72;;;9.40;87.12
6144;BME280;3103;49.492;8.474;2024-03-17T04:03:33;101201.59;;;9.40;86.89
6144;BME280;3103;49.492;8.474;2024-03-17T04:06:07;101201.59;;;9.40;86.68
6144;BME280;3103;49.492;8.474;2024-03-17T04:08:33;101207.44;;;9.24;87.43
6144;BME280;3103;49.492;8.474;2024-03-17T04:11:00;101202.34;;;9.16;88.12
6144;BME280;3103;49.492;8.474;2024-03-17T04:13:29;101205.94;;;8.77;90.10
6144;BME280;3103;49.492;8.474;2024-03-17T04:15:56;101191.22;;;9.06;88.97
6144;BME280;3103;49.492;8.474;2024-03-17T04:18:23;101195.72;;;9.12;88.25
6144;BME280;3103;49.492;8.474;2024-03-17T04:20:53;101199.91;;;8.95;88.48
6144;BME280;3103;49.492;8.474;2024-03-17T04:23:20;101196.59;;;8.92;89.53
6144;BME280;3103;49.492;8.474;2024-03-17T04:25:48;101199.88;;;9.08;88.78
6144;BME280;3103;49.492;8.474;2024-03-17T04:28:15;101196.97;;;9.16;88.55
6144;BME280;3103;49.492;8.474;2024-03-17T04:30:41;101196.97;;;9.09;88.70
6144;BME280;3103;49.492;8.474;2024-03-17T04:33:09;101204.41;;;9.07;88.98
6144;BME280;3103;49.492;8.474;2024-03-17T04:35:36;101201.53;;;8.96;89.75
6144;BME280;3103;49.492;8.474;2024-03-17T04:38:02;101204.72;;;8.59;91.19
6144;BME280;3103;49.492;8.474;2024-03-17T04:40:28;101198.91;;;8.82;90.82
6144;BME280;3103;49.492;8.474;2024-03-17T04:42:54;101194.94;;;9.05;90.12
6144;BME280;3103;49.492;8.474;2024-03-17T04:45:20;101197.19;;;9.08;90.06
6144;BME280;3103;49.492;8.474;2024-03-17T04:47:47;101198.41;;;9.12;89.32
6144;BME280;3103;49.492;8.474;2024-03-17T04:50:13;101199.66;;;9.16;88.54
6144;BME280;3103;49.492;8.474;2024-03-17T04:52:39;101201.09;;;9.12;88.67
6144;BME280;3103;49.492;8.474;2024-03-17T04:55:05;101203.56;;;9.13;89.17
6144;BME280;3103;49.492;8.474;2024-03-17T04:57:31;101195.50;;;9.13;89.19
6144;BME280;3103;49.492;8.474;2024-03-17T04:59:57;101184.63;;;9.02;90.11
6144;BME280;3103;49.492;8.474;2024-03-17T05:02:23;101192.03;;;9.06;90.08
6144;BME280;3103;49.492;8.474;2024-03-17T05:04:50;101188.72;;;9.11;89.92
6144;BME280;3103;49.492;8.474;2024-03-17T05:07:16;101193.25;;;9.17;88.87
6144;BME280;3103;49.492;8.474;2024-03-17T05:09:41;101196.53;;;9.12;89.19
6144;BME280;3103;49.492;8.474;2024-03-17T05:12:10;101192.88;;;9.07;89.34
6144;BME280;3103;49.492;8.474;2024-03-17T05:14:35;101201.34;;;9.04;88.62
6144;BME280;3103;49.492;8.474;2024-03-17T05:17:01;101193.72;;;8.94;89.46
6144;BME280;3103;49.492;8.474;2024-03-17T05:19:27;101196.25;;;8.76;90.96
6144;BME280;3103;49.492;8.474;2024-03-17T05:21:53;101196.19;;;9.02;90.06
6144;BME280;3103;49.492;8.474;2024-03-17T05:24:19;101194.06;;;9.11;89.12
6144;BME280;3103;49.492;8.474;2024-03-17T05:26:45;101194.28;;;9.09;88.90
6144;BME280;3103;49.492;8.474;2024-03-17T05:29:11;101196.16;;;9.09;89.10
6144;BME280;3103;49.492;8.474;2024-03-17T05:31:37;101192.44;;;9.10;87.87
6144;BME280;3103;49.492;8.474;2024-03-17T05:34:07;101195.56;;;8.93;88.08
6144;BME280;3103;49.492;8.474;2024-03-17T05:36:34;101201.19;;;8.79;88.37
6144;BME280;3103;49.492;8.474;2024-03-17T05:39:00;101197.47;;;8.67;89.10
6144;BME280;3103;49.492;8.474;2024-03-17T05:41:26;101192.94;;;8.74;89.75
6144;BME280;3103;49.492;8.474;2024-03-17T05:43:53;101191.47;;;8.84;88.95
6144;BME280;3103;49.492;8.474;2024-03-17T05:46:24;101184.84;;;8.93;88.31
6144;BME280;3103;49.492;8.474;2024-03-17T05:48:54;101194.13;;;8.98;87.72
6144;BME280;3103;49.492;8.474;2024-03-17T05:51:20;101193.50;;;9.02;87.07
6144;BME280;3103;49.492;8.474;2024-03-17T05:53:47;101192.88;;;9.00;86.58
6144;BME280;3103;49.492;8.474;2024-03-17T05:56:13;101201.56;;;8.89;86.97
6144;BME280;3103;49.492;8.474;2024-03-17T05:58:39;101204.50;;;8.74;88.83
6144;BME280;3103;49.492;8.474;2024-03-17T06:01:05;101200.59;;;8.63;88.83
6144;BME280;3103;49.492;8.474;2024-03-17T06:03:35;101202.44;;;8.50;89.09
6144;BME280;3103;49.492;8.474;2024-03-17T06:06:05;101201.63;;;8.62;89.32
6144;BME280;3103;49.492;8.474;2024-03-17T06:08:38;101204.06;;;8.77;88.09
6144;BME280;3103;49.492;8.474;2024-03-17T06:11:07;101207.31;;;8.99;86.62
6144;BME280;3103;49.492;8.474;2024-03-17T06:13:34;101201.13;;;8.99;86.70
6144;BME280;3103;49.492;8.474;2024-03-17T06:16:03;101196.56;;;8.99;86.99
6144;BME280;3103;49.492;8.474;2024-03-17T06:18:31;101195.16;;;9.03;86.62
6144;BME280;3103;49.492;8.474;2024-03-17T06:20:58;101198.84;;;9.09;86.19
6144;BME280;3103;49.492;8.474;2024-03-17T06:23:25;101203.56;;;9.13;85.98
6144;BME280;3103;49.492;8.474;2024-03-17T06:25:55;101201.91;;;9.12;85.48
6144;BME280;3103;49.492;8.474;2024-03-17T06:28:22;101194.47;;;9.14;85.47
6144;BME280;3103;49.492;8.474;2024-03-17T06:30:56;101191.41;;;9.11;84.93
6144;BME280;3103;49.492;8.474;2024-03-17T06:33:27;101194.69;;;9.13;84.44
6144;BME280;3103;49.492;8.474;2024-03-17T06:36:01;101194.91;;;9.18;84.67
6144;BME280;3103;49.492;8.474;2024-03-17T06:38:27;101186.81;;;9.25;83.41
6144;BME280;3103;49.492;8.474;2024-03-17T06:40:53;101181.28;;;9.19;83.25
6144;BME280;3103;49.492;8.474;2024-03-17T06:43:20;101180.84;;;9.29;83.33
6144;BME280;3103;49.492;8.474;2024-03-17T06:45:56;101193.81;;;9.32;83.36
6144;BME280;3103;49.492;8.474;2024-03-17T06:48:25;101192.94;;;9.38;83.72
6144;BME280;3103;49.492;8.474;2024-03-17T06:50:52;101191.91;;;9.46;83.68
6144;BME280;3103;49.492;8.474;2024-03-17T06:53:18;101188.34;;;9.52;82.96
6144;BME280;3103;49.492;8.474;2024-03-17T06:55:55;101193.53;;;9.47;83.78
6144;BME280;3103;49.492;8.474;2024-03-17T06:58:22;101181.50;;;9.56;83.71
6144;BME280;3103;49.492;8.474;2024-03-17T07:00:53;101187.44;;;9.65;83.92
6144;BME280;3103;49.492;8.474;2024-03-17T07:03:19;101174.03;;;9.65;84.09
6144;BME280;3103;49.492;8.474;2024-03-17T07:05:56;101181.56;;;9.81;83.85
6144;BME280;3103;49.492;8.474;2024-03-17T07:08:23;101187.88;;;10.00;84.07
6144;BME280;3103;49.492;8.474;2024-03-17T07:11:03;101175.06;;;10.27;83.97
6144;BME280;3103;49.492;8.474;2024-03-17T07:13:33;101183.75;;;10.29;82.50
6144;BME280;3103;49.492;8.474;2024-03-17T07:16:00;101175.28;;;10.00;83.77
6144;BME280;3103;49.492;8.474;2024-03-17T07:18:28;101179.84;;;9.93;82.58
6144;BME280;3103;49.492;8.474;2024-03-17T07:21:02;101178.69;;;10.64;81.02
6144;BME280;3103;49.492;8.474;2024-03-17T07:23:33;101186.53;;;11.20;79.02
6144;BME280;3103;49.492;8.474;2024-03-17T07:26:00;101188.34;;;11.26;76.52
6144;BME280;3103;49.492;8.474;2024-03-17T07:28:26;101181.59;;;10.62;76.40
6144;BME280;3103;49.492;8.474;2024-03-17T07:30:55;101190.47;;;10.38;77.32
6144;BME280;3103;49.492;8.474;2024-03-17T07:33:22;101178.88;;;9.88;78.46
6144;BME280;3103;49.492;8.474;2024-03-17T07:38:17;101178.75;;;10.32;77.29
6144;BME280;3103;49.492;8.474;2024-03-17T07:40:45;101161.38;;;10.35;76.14
6144;BME280;3103;49.492;8.474;2024-03-17T07:43:11;101166.28;;;10.63;77.82
6144;BME280;3103;49.492;8.474;2024-03-17T07:45:37;101163.47;;;10.94;77.59
6144;BME280;3103;49.492;8.474;2024-03-17T07:48:04;101170.72;;;11.12;77.01
6144;BME280;3103;49.492;8.474;2024-03-17T07:50:30;101180.72;;;11.23;77.12
6144;BME280;3103;49.492;8.474;2024-03-17T07:52:56;101185.03;;;11.24;76.16
6144;BME280;3103;49.492;8.474;2024-03-17T07:55:22;101180.06;;;11.58;74.72
6144;BME280;3103;49.492;8.474;2024-03-17T07:57:48;101190.03;;;11.39;74.34
6144;BME280;3103;49.492;8.474;2024-03-17T08:00:14;101190.81;;;10.48;75.25
6144;BME280;3103;49.492;8.474;2024-03-17T08:02:47;101193.47;;;10.30;75.33
6144;BME280;3103;49.492;8.474;2024-03-17T08:05:13;101189.78;;;10.49;75.42
6144;BME280;3103;49.492;8.474;2024-03-17T08:07:39;101193.97;;;10.14;75.63
6144;BME280;3103;49.492;8.474;2024-03-17T08:10:08;101201.31;;;10.25;76.20
6144;BME280;3103;49.492;8.474;2024-03-17T08:12:36;101201.97;;;10.20;75.93
6144;BME280;3103;49.492;8.474;2024-03-17T08:15:03;101197.91;;;10.43;75.40
6144;BME280;3103;49.492;8.474;2024-03-17T08:17:30;101194.09;;;10.50;75.77
6144;BME280;3103;49.492;8.474;2024-03-17T08:19:58;101190.69;;;10.61;74.38
6144;BME280;3103;49.492;8.474;2024-03-17T08:22:23;101195.25;;;10.61;73.32
6144;BME280;3103;49.492;8.474;2024-03-17T08:24:49;101198.41;;;10.76;73.48
6144;BME280;3103;49.492;8.474;2024-03-17T08:27:15;101184.16;;;10.51;74.01
6144;BME280;3103;49.492;8.474;2024-03-17T08:29:41;101193.25;;;10.75;74.04
6144;BME280;3103;49.492;8.474;2024-03-17T08:32:07;101184.59;;;11.09;73.24
6144;BME280;3103;49.492;8.474;2024-03-17T08:34:34;101189.91;;;11.34;72.55
6144;BME280;3103;49.492;8.474;2024-03-17T08:37:00;101179.50;;;11.38;71.81
6144;BME280;3103;49.492;8.474;2024-03-17T08:39:25;101176.97;;;11.43;71.02
6144;BME280;3103;49.492;8.474;2024-03-17T08:41:52;101175.59;;;11.52;70.12
6144;BME280;3103;49.492;8.474;2024-03-17T08:44:17;101159.19;;;11.42;70.58
6144;BME280;3103;49.492;8.474;2024-03-17T08:46:43;101168.75;;;11.68;70.21
6144;BME280;3103;49.492;8.474;2024-03-17T08:49:10;101161.13;;;11.83;68.36
6144;BME280;3103;49.492;8.474;2024-03-17T08:51:35;101163.44;;;11.79;68.44
6144;BME280;3103;49.492;8.474;2024-03-17T08:54:01;101168.72;;;11.86;67.73
6144;BME280;3103;49.492;8.474;2024-03-17T08:56:27;101165.94;;;11.93;68.32
6144;BME280;3103;49.492;8.474;2024-03-17T08:58:53;101162.31;;;11.99;66.83
6144;BME280;3103;49.492;8.474;2024-03-17T09:01:19;101170.03;;;11.95;68.13
6144;BME280;3103;49.492;8.474;2024-03-17T09:03:45;101167.00;;;12.03;67.16
6144;BME280;3103;49.492;8.474;2024-03-17T09:06:15;101164.19;;;11.98;66.92
6144;BME280;3103;49.492;8.474;2024-03-17T09:08:42;101170.41;;;11.99;67.97
6144;BME280;3103;49.492;8.474;2024-03-17T09:11:13;101169.59;;;11.98;67.59
6144;BME280;3103;49.492;8.474;2024-03-17T09:13:39;101171.47;;;12.09;66.97
6144;BME280;3103;49.492;8.474;2024-03-17T09:16:05;101166.34;;;12.19;65.94
6144;BME280;3103;49.492;8.474;2024-03-17T09:18:33;101162.91;;;12.01;66.73
6144;BME280;3103;49.492;8.474;2024-03-17T09:23:27;101154.75;;;12.19;67.02
6144;BME280;3103;49.492;8.474;2024-03-17T09:26:14;101160.41;;;12.41;65.44
6144;BME280;3103;49.492;8.474;2024-03-17T09:28:42;101158.38;;;12.36;64.77
6144;BME280;3103;49.492;8.474;2024-03-17T09:31:10;101154.03;;;12.24;65.79
6144;BME280;3103;49.492;8.474;2024-03-17T09:33:37;101154.53;;;12.32;65.74
6144;BME280;3103;49.492;8.474;2024-03-17T09:36:05;101146.66;;;12.19;65.40
6144;BME280;3103;49.492;8.474;2024-03-17T09:38:33;101152.88;;;12.19;66.50
6144;BME280;3103;49.492;8.474;2024-03-17T09:40:59;101156.03;;;12.52;65.95
6144;BME280;3103;49.492;8.474;2024-03-17T09:43:30;101159.34;;;12.54;65.43
6144;BME280;3103;49.492;8.474;2024-03-17T09:45:57;101159.09;;;12.55;65.91
6144;BME280;3103;49.492;8.474;2024-03-17T09:48:25;101158.97;;;12.62;66.15
6144;BME280;3103;49.492;8.474;2024-03-17T09:50:55;101154.28;;;12.69;64.84
6144;BME280;3103;49.492;8.474;2024-03-17T09:55:50;101157.41;;;12.89;64.25
6144;BME280;3103;49.492;8.474;2024-03-17T09:58:16;101170.56;;;12.97;63.51
6144;BME280;3103;49.492;8.474;2024-03-17T10:00:46;101165.50;;;12.89;64.04
6144;BME280;3103;49.492;8.474;2024-03-17T10:03:42;101167.13;;;13.02;63.25
6144;BME280;3103;49.492;8.474;2024-03-17T10:06:15;101162.44;;;13.09;63.35
6144;BME280;3103;49.492;8.474;2024-03-17T10:08:46;101158.56;;;13.05;63.71
6144;BME280;3103;49.492;8.474;2024-03-17T10:11:13;101162.41;;;13.21;62.59
6144;BME280;3103;49.492;8.474;2024-03-17T10:13:45;101160.03;;;13.36;62.59
6144;BME280;3103;49.492;8.474;2024-03-17T10:16:22;101156.63;;;13.41;62.11
6144;BME280;3103;49.492;8.474;2024-03-17T10:18:50;101154.81;;;13.46;62.80
6144;BME280;3103;49.492;8.474;2024-03-17T10:21:27;101158.00;;;13.72;62.45
6144;BME280;3103;49.492;8.474;2024-03-17T10:24:28;101157.53;;;13.91;60.74
6144;BME280;3103;49.492;8.474;2024-03-17T10:26:59;101158.34;;;13.75;60.49
6144;BME280;3103;49.492;8.474;2024-03-17T10:29:35;101167.53;;;13.91;60.12
6144;BME280;3103;49.492;8.474;2024-03-17T10:32:12;101164.19;;;14.01;60.33
6144;BME280;3103;49.492;8.474;2024-03-17T10:34:42;101160.19;;;14.20;60.17
6144;BME280;3103;49.492;8.474;2024-03-17T10:37:19;101159.13;;;14.38;59.85
6144;BME280;3103;49.492;8.474;2024-03-17T10:39:51;101150.38;;;14.14;58.76
6144;BME280;3103;49.492;8.474;2024-03-17T10:42:35;101157.00;;;14.23;60.15
6144;BME280;3103;49.492;8.474;2024-03-17T10:45:06;101154.13;;;14.13;60.62
6144;BME280;3103;49.492;8.474;2024-03-17T10:47:34;101144.06;;;14.08;60.97
6144;BME280;3103;49.492;8.474;2024-03-17T10:50:01;101145.81;;;12.89;62.38
6144;BME280;3103;49.492;8.474;2024-03-17T10:52:33;101147.44;;;13.01;63.65
6144;BME280;3103;49.492;8.474;2024-03-17T10:55:02;101148.00;;;13.55;65.18
6144;BME280;3103;49.492;8.474;2024-03-17T11:00:04;101128.81;;;14.02;61.17
6144;BME280;3103;49.492;8.474;2024-03-17T11:02:32;101135.47;;;14.11;59.95
6144;BME280;3103;49.492;8.474;2024-03-17T11:05:01;101124.22;;;14.03;59.72
6144;BME280;3103;49.492;8.474;2024-03-17T11:07:31;101121.03;;;13.89;60.17
6144;BME280;3103;49.492;8.474;2024-03-17T11:09:59;101113.81;;;13.78;60.92
6144;BME280;3103;49.492;8.474;2024-03-17T11:12:45;101116.44;;;13.89;61.46
6144;BME280;3103;49.492;8.474;2024-03-17T11:17:46;101108.00;;;14.19;58.88
6144;BME280;3103;49.492;8.474;2024-03-17T11:20:21;101105.44;;;13.62;60.59
6144;BME280;3103;49.492;8.474;2024-03-17T11:22:52;101101.66;;;13.47;61.96
6144;BME280;3103;49.492;8.474;2024-03-17T11:27:57;101092.63;;;14.03;61.52
6144;BME280;3103;49.492;8.474;2024-03-17T11:46:59;101098.69;;;14.10;59.80
6144;BME280;3103;49.492;8.474;2024-03-17T11:49:27;101094.94;;;14.11;59.85
6144;BME280;3103;49.492;8.474;2024-03-17T11:51:55;101099.50;;;14.27;61.08
6144;BME280;3103;49.492;8.474;2024-03-17T11:54:23;101098.78;;;13.99;59.48
6144;BME280;3103;49.492;8.474;2024-03-17T11:56:51;101093.19;;;13.88;59.80
6144;BME280;3103;49.492;8.474;2024-03-17T11:59:18;101090.50;;;14.05;61.48
6144;BME280;3103;49.492;8.474;2024-03-17T12:01:46;101088.84;;;14.21;61.00
6144;BME280;3103;49.492;8.474;2024-03-17T12:04:23;101099.25;;;14.29;59.04
6144;BME280;3103;49.492;8.474;2024-03-17T12:06:50;101094.50;;;14.36;58.27
6144;BME280;3103;49.492;8.474;2024-03-17T12:11:50;101087.31;;;14.25;59.70
6144;BME280;3103;49.492;8.474;2024-03-17T12:14:18;101096.28;;;14.31;58.41
6144;BME280;3103;49.492;8.474;2024-03-17T12:16:55;101095.00;;;14.16;58.96
6144;BME280;3103;49.492;8.474;2024-03-17T12:19:22;101084.50;;;14.20;59.47
6144;BME280;3103;49.492;8.474;2024-03-17T12:21:50;101078.94;;;13.93;58.61
6144;BME280;3103;49.492;8.474;2024-03-17T12:24:19;101080.75;;;13.71;59.49
6144;BME280;3103;49.492;8.474;2024-03-17T12:26:46;101073.47;;;13.88;60.39
6144;BME280;3103;49.492;8.474;2024-03-17T12:31:54;101069.28;;;14.14;60.99
6144;BME280;3103;49.492;8.474;2024-03-17T12:34:22;101068.47;;;14.13;58.46
6144;BME280;3103;49.492;8.474;2024-03-17T12:36:48;101066.34;;;14.15;60.16
6144;BME280;3103;49.492;8.474;2024-03-17T12:39:31;101061.72;;;14.33;60.27
6144;BME280;3103;49.492;8.474;2024-03-17T12:42:08;101056.50;;;14.26;59.74
6144;BME280;3103;49.492;8.474;2024-03-17T12:44:46;101062.72;;;14.26;60.02
6144;BME280;3103;49.492;8.474;2024-03-17T12:47:17;101053.13;;;14.36;59.60
6144;BME280;3103;49.492;8.474;2024-03-17T12:49:52;101051.41;;;14.46;60.22
6144;BME280;3103;49.492;8.474;2024-03-17T12:52:29;101046.38;;;14.55;61.61
6144;BME280;3103;49.492;8.474;2024-03-17T12:57:48;101049.97;;;14.61;57.79
6144;BME280;3103;49.492;8.474;2024-03-17T13:00:34;101043.09;;;14.14;58.96
6144;BME280;3103;49.492;8.474;2024-03-17T13:03:05;101039.19;;;13.88;60.20
6144;BME280;3103;49.492;8.474;2024-03-17T13:05:34;101032.59;;;14.18;59.86
6144;BME280;3103;49.492;8.474;2024-03-17T13:08:01;101030.84;;;14.29;59.89
6144;BME280;3103;49.492;8.474;2024-03-17T13:10:29;101020.75;;;14.41;59.17
6144;BME280;3103;49.492;8.474;2024-03-17T13:13:08;101020.03;;;14.67;59.97
6144;BME280;3103;49.492;8.474;2024-03-17T13:15:35;101015.31;;;14.79;58.43
6144;BME280;3103;49.492;8.474;2024-03-17T13:18:04;101017.50;;;14.82;58.50
6144;BME280;3103;49.492;8.474;2024-03-17T13:20:31;101011.03;;;14.83;57.96
6144;BME280;3103;49.492;8.474;2024-03-17T13:23:01;101008.69;;;14.48;58.52
6144;BME280;3103;49.492;8.474;2024-03-17T13:25:28;101006.78;;;14.27;59.33
6144;BME280;3103;49.492;8.474;2024-03-17T13:28:04;101005.53;;;14.35;59.52
6144;BME280;3103;49.492;8.474;2024-03-17T13:30:33;101003.00;;;14.28;59.53
6144;BME280;3103;49.492;8.474;2024-03-17T13:33:03;101001.00;;;14.40;59.84
6144;BME280;3103;49.492;8.474;2024-03-17T13:35:38;100985.56;;;14.36;58.85
6144;BME280;3103;49.492;8.474;2024-03-17T13:38:06;100987.63;;;14.29;60.14
6144;BME280;3103;49.492;8.474;2024-03-17T13:40:33;100987.91;;;14.10;60.75
6144;BME280;3103;49.492;8.474;2024-03-17T13:43:00;100978.38;;;14.24;61.17
6144;BME280;3103;49.492;8.474;2024-03-17T13:45:28;100977.00;;;14.22;60.81
6144;BME280;3103;49.492;8.474;2024-03-17T13:48:03;100973.84;;;14.30;59.96
6144;BME280;3103;49.492;8.474;2024-03-17T13:50:38;100977.75;;;14.39;60.62
6144;BME280;3103;49.492;8.474;2024-03-17T13:53:05;100973.28;;;14.28;60.24
6144;BME280;3103;49.492;8.474;2024-03-17T13:55:31;100972.31;;;14.17;60.56
6144;BME280;3103;49.492;8.474;2024-03-17T13:57:57;100968.94;;;14.27;60.43
6144;BME280;3103;49.492;8.474;2024-03-17T14:00:29;100975.06;;;14.39;61.03